Snow/Ice From: 16-12-2017 16:00 Until: 17-12-2017 16:00 warning for: Snow/Ice Level: Yellow info button

Although rather usual in this region, locally or potentially dangerous phenomena are expected. (such as local winds, summer thunderstorms, rising streams or high waves) Be aware and pay attention to the latest weather updates, especially if you carry out activities exposed to weather or close to a stream or shoreline. 


Meteo18 Weather Cam more information Meteo18 Weather Cam


Thunder radar more information blitzortung!


warning for Snow/Ice more information rain snow radar


Visit our other weather sites:

Template documentation
and downloads

And another site



Weather Underground History page Text

Daily Summary for March 5, 2017 Units:  English    Metric   Both
« Previous Day
Next Day »
Daily Weekly Monthly Yearly Custom
  High: Low: Average:
Temperature: 52.5 °F 37.6 °F 44.1 °F
Dew Point: 45.9 °F 36 °F 39.7 °F
Humidity: 95 % 67 % 86 %
Wind Speed: 20 mph 0 mph 8.8 mph
Wind Gust: 38 mph - -
Wind:- - SW
Pressure: 29.8 in 29.6 in -
Precipitation: 0.3 in    
Historical Graphs
 
 
Tabular Data for March 5, 2017
Time Temperature Dew Point Pressure Wind Wind Speed Wind Gust Humidity Rainfall Rate (Hourly)
00:02 41.7 °F 39.2 °F 29.6 in SW 9 mph 16 mph 91 % 0 in
00:07 41.5 °F 39.4 °F 29.6 in SW 7 mph 13 mph 92 % 0 in
00:12 41.5 °F 39.4 °F 29.7 in SW 5 mph 11 mph 92 % 0 in
00:17 41.5 °F 39.7 °F 29.7 in SSW 5 mph 13 mph 93 % 0 in
00:22 41.5 °F 39.7 °F 29.7 in SSW 7 mph 13 mph 93 % 0 in
00:27 41.7 °F 39.9 °F 29.7 in SSW 6 mph 13 mph 93 % 0 in
00:32 41.7 °F 39.9 °F 29.7 in SW 8 mph 12 mph 93 % 0 in
00:42 41.7 °F 39.9 °F 29.7 in SW 11 mph 13 mph 93 % 0 in
00:47 41.9 °F 40.1 °F 29.7 in SW 6 mph 13 mph 93 % 0 in
00:52 42.1 °F 40.3 °F 29.7 in SSW 5 mph 14 mph 93 % 0 in
00:57 42.3 °F 40.5 °F 29.7 in WSW 8 mph 14 mph 93 % 0 in
01:02 42.3 °F 40.5 °F 29.7 in SW 8 mph 14 mph 93 % 0 in
01:07 42.4 °F 40.6 °F 29.7 in WSW 14 mph 14 mph 93 % 0 in
01:12 42.6 °F 40.8 °F 29.7 in West 8 mph 15 mph 93 % 0 in
01:17 42.8 °F 40.6 °F 29.7 in WSW 11 mph 15 mph 92 % 0 in
01:22 43 °F 40.8 °F 29.7 in WSW 11 mph 15 mph 92 % 0 in
01:27 43 °F 40.8 °F 29.7 in SW 8 mph 15 mph 92 % 0 in
01:32 43.2 °F 41 °F 29.7 in West 9 mph 16 mph 92 % 0 in
01:37 43.2 °F 40.6 °F 29.7 in WSW 11 mph 17 mph 91 % 0 in
01:42 43.2 °F 40.6 °F 29.7 in SW 5 mph 17 mph 91 % 0 in
01:47 43.2 °F 40.6 °F 29.7 in SW 7 mph 15 mph 91 % 0 in
01:52 43.2 °F 40.6 °F 29.7 in WSW 5 mph 15 mph 91 % 0 in
01:57 43 °F 40.5 °F 29.7 in WSW 10 mph 13 mph 91 % 0 in
02:02 43 °F 40.5 °F 29.7 in West 8 mph 16 mph 91 % 0 in
02:07 43 °F 40.5 °F 29.7 in West 6 mph 16 mph 91 % 0 in
02:12 43 °F 40.5 °F 29.7 in WSW 5 mph 16 mph 91 % 0 in
02:17 42.8 °F 40.3 °F 29.7 in SW 9 mph 15 mph 91 % 0 in
02:22 42.8 °F 40.3 °F 29.7 in SW 12 mph 15 mph 91 % 0 in
02:27 42.8 °F 40.3 °F 29.7 in WSW 12 mph 17 mph 91 % 0 in
02:32 42.6 °F 40.1 °F 29.7 in SW 7 mph 19 mph 91 % 0 in
02:37 42.6 °F 40.1 °F 29.7 in SW 6 mph 19 mph 91 % 0 in
02:42 42.6 °F 40.1 °F 29.7 in SW 10 mph 19 mph 91 % 0 in
02:47 42.6 °F 40.1 °F 29.7 in SW 5 mph 17 mph 91 % 0 in
02:52 42.6 °F 40.1 °F 29.7 in West 2 mph 17 mph 91 % 0 in
02:57 42.4 °F 39.9 °F 29.7 in WSW 8 mph 17 mph 91 % 0 in
03:02 42.4 °F 39.9 °F 29.7 in SW 8 mph 14 mph 91 % 0 in
03:07 42.4 °F 39.9 °F 29.7 in West 7 mph 15 mph 91 % 0 in
03:12 42.4 °F 39.9 °F 29.7 in SW 9 mph 16 mph 91 % 0 in
03:17 42.4 °F 39.9 °F 29.7 in WSW 6 mph 16 mph 91 % 0 in
03:22 42.4 °F 39.9 °F 29.7 in WSW 5 mph 16 mph 91 % 0 in
03:27 42.3 °F 39.7 °F 29.7 in SW 8 mph 15 mph 91 % 0 in
03:32 42.3 °F 39.7 °F 29.7 in West 3 mph 15 mph 91 % 0 in
03:37 42.3 °F 39.7 °F 29.7 in SW 9 mph 13 mph 91 % 0 in
03:42 42.3 °F 39.7 °F 29.7 in SW 5 mph 12 mph 91 % 0 in
03:47 42.1 °F 39.6 °F 29.7 in WSW 8 mph 13 mph 91 % 0 in
03:52 42.1 °F 39.6 °F 29.7 in WSW 7 mph 14 mph 91 % 0 in
03:57 41.9 °F 39.7 °F 29.7 in SW 5 mph 14 mph 92 % 0 in
04:02 41.7 °F 39.2 °F 29.7 in SW 4 mph 14 mph 91 % 0 in
04:07 41.7 °F 39.6 °F 29.7 in SSW 6 mph 13 mph 92 % 0 in
04:12 41.5 °F 39.4 °F 29.7 in WSW 6 mph 12 mph 92 % 0 in
04:17 41.5 °F 39.4 °F 29.7 in SSW 5 mph 12 mph 92 % 0 in
04:22 41.4 °F 39.2 °F 29.7 in WSW 4 mph 12 mph 92 % 0 in
04:27 41.2 °F 39 °F 29.7 in SW 5 mph 12 mph 92 % 0 in
04:32 40.8 °F 38.7 °F 29.7 in SW 4 mph 10 mph 92 % 0 in
04:37 40.6 °F 38.5 °F 29.7 in SSW 3 mph 10 mph 92 % 0 in
04:42 40.3 °F 38.5 °F 29.7 in SW 3 mph 8 mph 93 % 0 in
04:47 39.9 °F 38.1 °F 29.7 in South 3 mph 7 mph 93 % 0 in
04:52 39.7 °F 37.9 °F 29.7 in SSW 4 mph 6 mph 93 % 0 in
04:57 39.6 °F 37.8 °F 29.7 in SW 2 mph 6 mph 93 % 0 in
05:02 39.2 °F 37.4 °F 29.7 in SSW 1 mph 6 mph 93 % 0 in
05:07 39 °F 37.4 °F 29.7 in South 1 mph 6 mph 94 % 0 in
05:12 38.8 °F 37.2 °F 29.7 in SE 1 mph 6 mph 94 % 0 in
05:17 38.7 °F 37 °F 29.7 in Calm   6 mph 94 % 0 in
05:22 38.7 °F 37 °F 29.7 in SE 1 mph 4 mph 94 % 0 in
05:27 38.5 °F 36.9 °F 29.7 in Calm   4 mph 94 % 0 in
05:32 38.3 °F 36.7 °F 29.7 in SE 1 mph 4 mph 94 % 0 in
05:37 38.3 °F 36.7 °F 29.7 in SE 1 mph 4 mph 94 % 0 in
05:42 38.3 °F 36.7 °F 29.7 in South 1 mph 5 mph 94 % 0 in
05:47 38.5 °F 36.9 °F 29.7 in SSE 1 mph 5 mph 94 % 0 in
05:52 38.5 °F 36.9 °F 29.7 in SSE 1 mph 6 mph 94 % 0 in
05:57 38.5 °F 36.9 °F 29.7 in SE 3 mph 6 mph 94 % 0 in
06:02 37.9 °F 36.3 °F 29.7 in SSE 3 mph 6 mph 94 % 0 in
06:12 37.8 °F 36.1 °F 29.7 in SE 1 mph 5 mph 94 % 0 in
06:17 37.8 °F 36.1 °F 29.7 in SE 3 mph 5 mph 94 % 0 in
06:22 37.8 °F 36.1 °F 29.7 in Calm   5 mph 94 % 0 in
06:27 37.8 °F 36.1 °F 29.7 in SE 2 mph 5 mph 94 % 0 in
06:32 37.8 °F 36.1 °F 29.7 in South 1 mph 4 mph 94 % 0 in
06:37 37.8 °F 36.1 °F 29.7 in SSW 2 mph 5 mph 94 % 0 in
06:42 37.6 °F 36 °F 29.7 in South 1 mph 5 mph 94 % 0 in
06:47 37.8 °F 36.5 °F 29.7 in SSW 2 mph 5 mph 95 % 0 in
06:52 37.8 °F 36.1 °F 29.7 in SSE 1 mph 5 mph 94 % 0 in
07:02 37.6 °F 36 °F 29.7 in SSE 1 mph 5 mph 94 % 0 in
07:07 37.6 °F 36 °F 29.7 in SSW 1 mph 4 mph 94 % 0 in
07:17 37.8 °F 36.5 °F 29.7 in SSW 3 mph 3 mph 95 % 0 in
07:22 37.9 °F 36.7 °F 29.7 in SSW 6 mph 6 mph 95 % 0 in
07:27 38.3 °F 36.7 °F 29.7 in SSW 3 mph 9 mph 94 % 0 in
07:32 38.5 °F 36.9 °F 29.7 in SW 5 mph 9 mph 94 % 0 in
07:37 38.7 °F 36.9 °F 29.7 in SSW 4 mph 10 mph 93 % 0 in
07:42 38.8 °F 37 °F 29.7 in SW 8 mph 10 mph 93 % 0 in
07:47 39 °F 36.9 °F 29.7 in SW 4 mph 11 mph 92 % 0 in
07:52 39 °F 36.9 °F 29.7 in SSW 7 mph 11 mph 92 % 0 in
07:57 39.2 °F 37 °F 29.7 in SSW 4 mph 11 mph 92 % 0 in
08:02 39.4 °F 37.2 °F 29.7 in SSW 5 mph 11 mph 92 % 0 in
08:07 39.6 °F 37.2 °F 29.7 in South 6 mph 12 mph 91 % 0 in
08:12 39.7 °F 37.4 °F 29.7 in SSW 8 mph 13 mph 91 % 0 in
08:17 40.1 °F 37.8 °F 29.7 in SSW 8 mph 13 mph 91 % 0 in
08:22 40.3 °F 37.6 °F 29.7 in SSW 6 mph 13 mph 90 % 0 in
08:27 40.5 °F 37.8 °F 29.7 in South 6 mph 12 mph 90 % 0 in
08:32 40.5 °F 37.8 °F 29.7 in South 7 mph 11 mph 90 % 0 in
08:37 40.6 °F 37.9 °F 29.7 in South 8 mph 13 mph 90 % 0 in
08:42 40.8 °F 38.1 °F 29.7 in South 11 mph 14 mph 90 % 0 in
08:47 41 °F 38.3 °F 29.7 in South 7 mph 14 mph 90 % 0 in
08:52 41.2 °F 38.1 °F 29.7 in SSW 4 mph 16 mph 89 % 0 in
08:57 41.2 °F 38.1 °F 29.7 in SSW 5 mph 16 mph 89 % 0 in
09:02 41.4 °F 38.3 °F 29.7 in SSW 6 mph 16 mph 89 % 0 in
09:07 41.5 °F 38.5 °F 29.7 in SSW 6 mph 14 mph 89 % 0 in
09:12 41.5 °F 38.5 °F 29.7 in SSW 6 mph 14 mph 89 % 0 in
09:17 41.5 °F 38.3 °F 29.7 in SSW 6 mph 14 mph 88 % 0 in
09:22 41.7 °F 38.5 °F 29.7 in South 5 mph 12 mph 88 % 0 in
09:27 41.7 °F 38.5 °F 29.7 in SSW 13 mph 13 mph 88 % 0 in
09:32 41.9 °F 38.7 °F 29.7 in SW 9 mph 15 mph 88 % 0 in
09:37 41.9 °F 38.7 °F 29.7 in SSW 9 mph 16 mph 88 % 0 in
09:42 41.9 °F 38.7 °F 29.7 in SSW 16 mph 16 mph 88 % 0 in
09:52 41.7 °F 38.7 °F 29.7 in SSW 7 mph 16 mph 89 % 0.01 in
09:57 41.5 °F 38.5 °F 29.7 in SSW 7 mph 16 mph 89 % 0.01 in
10:02 41.5 °F 38.8 °F 29.7 in SSW 5 mph 16 mph 90 % 0.02 in
10:07 41.4 °F 38.7 °F 29.7 in SSE 7 mph 16 mph 90 % 0.02 in
10:12 41.4 °F 39 °F 29.7 in SSE 12 mph 16 mph 91 % 0.02 in
10:17 41.4 °F 39 °F 29.7 in SSE 6 mph 15 mph 91 % 0.03 in
10:22 41.2 °F 39 °F 29.7 in South 4 mph 15 mph 92 % 0.04 in
10:27 41.4 °F 39.2 °F 29.6 in SSE 9 mph 15 mph 92 % 0.05 in
10:32 41.4 °F 39.2 °F 29.6 in SSE 7 mph 14 mph 92 % 0.06 in
10:37 41.4 °F 39.2 °F 29.6 in South 7 mph 16 mph 92 % 0.06 in
10:42 41.4 °F 39.2 °F 29.6 in SSW 12 mph 16 mph 92 % 0.07 in
10:47 41.4 °F 39.2 °F 29.6 in South 6 mph 16 mph 92 % 0.08 in
10:52 41.4 °F 39.2 °F 29.6 in SSW 8 mph 16 mph 92 % 0.07 in
10:57 41.4 °F 39.2 °F 29.6 in SE 5 mph 16 mph 92 % 0.08 in
11:02 41.4 °F 39.2 °F 29.6 in South 6 mph 17 mph 92 % 0.08 in
11:07 41.4 °F 39 °F 29.6 in SSW 11 mph 17 mph 91 % 0.09 in
11:12 41.4 °F 39.2 °F 29.6 in SSW 11 mph 17 mph 92 % 0.09 in
11:17 41.4 °F 39.2 °F 29.6 in SSE 10 mph 17 mph 92 % 0.09 in
11:22 41.4 °F 39 °F 29.6 in South 7 mph 23 mph 91 % 0.09 in
11:27 41.4 °F 39.2 °F 29.6 in South 12 mph 23 mph 92 % 0.09 in
11:32 41.4 °F 39.2 °F 29.6 in South 12 mph 23 mph 92 % 0.11 in
11:37 41.4 °F 39.2 °F 29.6 in SW 10 mph 16 mph 92 % 0.13 in
11:42 41.4 °F 39.6 °F 29.6 in South 10 mph 16 mph 93 % 0.13 in
11:47 41.4 °F 39.6 °F 29.6 in SSE 6 mph 16 mph 93 % 0.13 in
11:52 41.5 °F 39.7 °F 29.6 in SSW 9 mph 18 mph 93 % 0.13 in
11:57 41.5 °F 39.7 °F 29.6 in SSW 15 mph 18 mph 93 % 0.13 in
12:02 41.7 °F 39.9 °F 29.6 in SSW 14 mph 19 mph 93 % 0.13 in
12:07 41.7 °F 39.9 °F 29.6 in SSW 11 mph 19 mph 93 % 0.12 in
12:12 41.7 °F 39.9 °F 29.6 in SSW 12 mph 21 mph 93 % 0.11 in
12:17 41.7 °F 40.1 °F 29.6 in SSW 11 mph 24 mph 94 % 0.1 in
12:22 41.7 °F 40.1 °F 29.6 in South 7 mph 24 mph 94 % 0.09 in
12:27 41.7 °F 40.1 °F 29.6 in South 12 mph 20 mph 94 % 0.07 in
12:32 42.1 °F 40.5 °F 29.6 in SSW 14 mph 20 mph 94 % 0.06 in
12:42 42.4 °F 40.6 °F 29.6 in SSW 11 mph 20 mph 93 % 0.03 in
12:47 42.6 °F 40.8 °F 29.6 in South 12 mph 20 mph 93 % 0.03 in
12:52 42.6 °F 41 °F 29.6 in SSW 15 mph 21 mph 94 % 0.03 in
12:57 42.8 °F 41.2 °F 29.6 in SW 13 mph 21 mph 94 % 0.03 in
13:02 43 °F 41.2 °F 29.6 in SW 20 mph 21 mph 93 % 0.03 in
13:07 43.2 °F 41.4 °F 29.6 in SSW 11 mph 23 mph 93 % 0.03 in
13:12 43.3 °F 41.2 °F 29.6 in SSW 9 mph 23 mph 92 % 0.05 in
13:17 43.3 °F 41.2 °F 29.6 in SSW 9 mph 23 mph 92 % 0.06 in
13:27 43.9 °F 41.7 °F 29.6 in SSW 13 mph 26 mph 92 % 0.06 in
13:32 44.1 °F 41.9 °F 29.6 in WSW 14 mph 26 mph 92 % 0.06 in
13:37 44.2 °F 42.1 °F 29.6 in WSW 14 mph 26 mph 92 % 0.06 in
13:42 44.4 °F 42.3 °F 29.6 in WSW 11 mph 22 mph 92 % 0.06 in
13:47 44.8 °F 42.6 °F 29.6 in SSW 11 mph 22 mph 92 % 0.05 in
13:52 45.1 °F 42.6 °F 29.6 in SSW 5 mph 22 mph 91 % 0.05 in
13:57 45.3 °F 43.2 °F 29.6 in WSW 6 mph 22 mph 92 % 0.04 in
14:02 45.7 °F 43.2 °F 29.6 in WSW 17 mph 20 mph 91 % 0.03 in
14:07 45.9 °F 43.3 °F 29.6 in SW 9 mph 19 mph 91 % 0.02 in
14:12 46.2 °F 44.1 °F 29.6 in SW 8 mph 19 mph 92 % 0.02 in
14:17 46.8 °F 44.2 °F 29.6 in WSW 13 mph 19 mph 91 % 0.01 in
14:22 47.5 °F 44.8 °F 29.6 in SW 13 mph 17 mph 90 % 0 in
14:27 48 °F 44.6 °F 29.6 in SW 9 mph 20 mph 88 % 0 in
14:32 48.7 °F 44.8 °F 29.6 in WSW 17 mph 22 mph 86 % 0 in
14:37 49.1 °F 44.8 °F 29.6 in SW 9 mph 25 mph 85 % 0 in
14:42 49.6 °F 45.3 °F 29.6 in West 8 mph 25 mph 85 % 0 in
14:47 50.2 °F 45.5 °F 29.6 in SW 12 mph 25 mph 84 % 0 in
14:52 50.4 °F 45.3 °F 29.6 in West 4 mph 22 mph 83 % 0 in
14:57 50.4 °F 45.3 °F 29.6 in West 8 mph 24 mph 83 % 0 in
15:02 50.5 °F 45.5 °F 29.6 in WSW 13 mph 24 mph 83 % 0 in
15:07 51.1 °F 45.9 °F 29.6 in SW 16 mph 24 mph 82 % 0 in
15:12 51.1 °F 44.8 °F 29.6 in SW 14 mph 22 mph 79 % 0 in
15:17 51.3 °F 44.2 °F 29.6 in SW 18 mph 27 mph 77 % 0 in
15:22 51.6 °F 44.2 °F 29.6 in WSW 13 mph 27 mph 76 % 0 in
15:27 51.6 °F 43.9 °F 29.6 in West 10 mph 27 mph 75 % 0 in
15:32 51.4 °F 42.8 °F 29.6 in SW 18 mph 24 mph 72 % 0 in
15:37 51.4 °F 42.8 °F 29.6 in West 12 mph 26 mph 72 % 0 in
15:42 51.6 °F 42.4 °F 29.6 in SW 16 mph 27 mph 71 % 0 in
15:47 52 °F 42.8 °F 29.6 in WSW 13 mph 27 mph 71 % 0 in
15:52 52.3 °F 42.1 °F 29.6 in WSW 16 mph 27 mph 68 % 0 in
15:57 52.5 °F 43 °F 29.6 in WNW 11 mph 38 mph 70 % 0 in
16:02 52.3 °F 42.8 °F 29.6 in West 14 mph 38 mph 70 % 0 in
16:07 52 °F 42.8 °F 29.6 in West 10 mph 29 mph 71 % 0 in
16:12 51.8 °F 42.6 °F 29.6 in WNW 12 mph 28 mph 71 % 0 in
16:17 50.5 °F 41.9 °F 29.6 in West 13 mph 31 mph 72 % 0 in
16:22 49.5 °F 42.6 °F 29.6 in West 10 mph 31 mph 77 % 0 in
16:27 49.1 °F 42.6 °F 29.6 in West 11 mph 31 mph 78 % 0 in
16:32 49.3 °F 43 °F 29.6 in WSW 15 mph 27 mph 79 % 0 in
16:37 49.3 °F 43 °F 29.6 in WSW 9 mph 26 mph 79 % 0 in
16:42 49.3 °F 43 °F 29.6 in SSW 13 mph 18 mph 79 % 0 in
16:47 48.9 °F 42.1 °F 29.6 in WSW 12 mph 18 mph 77 % 0 in
16:52 48.7 °F 41.5 °F 29.6 in West 11 mph 22 mph 76 % 0 in
16:57 48.6 °F 41.7 °F 29.6 in WSW 11 mph 24 mph 77 % 0 in
17:02 48.6 °F 41.4 °F 29.6 in WSW 13 mph 24 mph 76 % 0 in
17:07 48.4 °F 40.8 °F 29.6 in West 13 mph 22 mph 75 % 0 in
17:12 48.4 °F 40.8 °F 29.7 in West 16 mph 22 mph 75 % 0 in
17:17 48.6 °F 40.3 °F 29.6 in West 18 mph 20 mph 73 % 0 in
17:22 48.6 °F 40.3 °F 29.6 in SW 15 mph 20 mph 73 % 0 in
17:27 48.7 °F 40.1 °F 29.6 in WSW 17 mph 23 mph 72 % 0 in
17:32 48.7 °F 40.8 °F 29.7 in West 16 mph 24 mph 74 % 0 in
17:37 48.7 °F 40.5 °F 29.7 in West 11 mph 24 mph 73 % 0 in
17:42 48.7 °F 40.5 °F 29.7 in WSW 13 mph 24 mph 73 % 0 in
17:47 48.9 °F 39.9 °F 29.7 in West 17 mph 24 mph 71 % 0 in
17:52 49.1 °F 40.5 °F 29.7 in WSW 20 mph 24 mph 72 % 0 in
17:57 49.1 °F 40.1 °F 29.7 in West 12 mph 32 mph 71 % 0 in
18:02 48.9 °F 39.6 °F 29.7 in WSW 11 mph 32 mph 70 % 0 in
18:07 48.9 °F 39.6 °F 29.7 in WSW 16 mph 32 mph 70 % 0 in
18:12 48.9 °F 38.8 °F 29.7 in WNW 9 mph 25 mph 68 % 0 in
18:17 48.7 °F 39.4 °F 29.7 in WSW 10 mph 25 mph 70 % 0 in
18:22 48.7 °F 39 °F 29.7 in West 9 mph 25 mph 69 % 0 in
18:27 48.6 °F 39.2 °F 29.7 in WSW 13 mph 21 mph 70 % 0 in
18:32 48.6 °F 38.5 °F 29.7 in West 19 mph 21 mph 68 % 0 in
18:42 48.6 °F 38.5 °F 29.7 in WSW 7 mph 24 mph 68 % 0 in
18:47 48.6 °F 38.1 °F 29.7 in WSW 17 mph 24 mph 67 % 0 in
18:52 48.6 °F 38.1 °F 29.7 in SW 12 mph 21 mph 67 % 0 in
18:57 48.4 °F 37.9 °F 29.7 in WNW 10 mph 20 mph 67 % 0 in
19:02 48.4 °F 37.9 °F 29.7 in WNW 10 mph 22 mph 67 % 0 in
19:07 48.4 °F 37.9 °F 29.7 in West 15 mph 22 mph 67 % 0 in
19:12 48.2 °F 37.8 °F 29.7 in WSW 20 mph 23 mph 67 % 0 in
19:17 48 °F 37.6 °F 29.7 in West 13 mph 23 mph 67 % 0 in
19:22 47.8 °F 37.4 °F 29.7 in SSW 9 mph 23 mph 67 % 0 in
19:27 47.8 °F 37.8 °F 29.7 in WSW 16 mph 23 mph 68 % 0 in
19:32 47.7 °F 37.6 °F 29.7 in West 12 mph 22 mph 68 % 0 in
19:37 47.7 °F 37.9 °F 29.7 in WSW 13 mph 22 mph 69 % 0 in
19:42 47.5 °F 37.8 °F 29.7 in SW 7 mph 21 mph 69 % 0 in
19:47 47.1 °F 37.8 °F 29.7 in West 9 mph 20 mph 70 % 0 in
19:52 47.1 °F 37.8 °F 29.7 in WSW 5 mph 20 mph 70 % 0 in
19:57 46.9 °F 38.1 °F 29.7 in West 8 mph 15 mph 71 % 0 in
20:02 46.8 °F 37.9 °F 29.7 in SW 5 mph 15 mph 71 % 0 in
20:07 46.8 °F 38.3 °F 29.7 in WSW 12 mph 15 mph 72 % 0 in
20:17 46.6 °F 38.5 °F 29.7 in WSW 13 mph 15 mph 73 % 0 in
20:22 46.6 °F 38.7 °F 29.7 in WSW 10 mph 18 mph 74 % 0 in
20:27 46.6 °F 38.7 °F 29.7 in West 10 mph 19 mph 74 % 0 in
20:32 46.6 °F 38.7 °F 29.7 in West 11 mph 19 mph 74 % 0 in
20:37 46.4 °F 38.8 °F 29.7 in West 7 mph 19 mph 75 % 0 in
20:42 46.4 °F 38.8 °F 29.8 in West 5 mph 15 mph 75 % 0 in
20:47 46.4 °F 38.8 °F 29.8 in West 7 mph 17 mph 75 % 0 in
20:52 46.2 °F 39 °F 29.8 in WSW 11 mph 17 mph 76 % 0 in
20:57 46.2 °F 39 °F 29.8 in SW 8 mph 17 mph 76 % 0 in
21:02 46 °F 38.8 °F 29.8 in WSW 13 mph 17 mph 76 % 0 in
21:07 46 °F 39.2 °F 29.8 in WSW 5 mph 17 mph 77 % 0 in
21:12 46 °F 39.2 °F 29.8 in West 7 mph 18 mph 77 % 0 in
21:17 46 °F 39.6 °F 29.8 in SW 8 mph 18 mph 78 % 0 in
21:27 46 °F 39.9 °F 29.8 in WSW 16 mph 19 mph 79 % 0 in
21:32 46.2 °F 40.1 °F 29.8 in West 13 mph 22 mph 79 % 0 in
21:37 46 °F 40.3 °F 29.8 in West 10 mph 22 mph 80 % 0 in
21:42 46 °F 40.3 °F 29.8 in WSW 8 mph 24 mph 80 % 0 in
21:47 45.9 °F 40.1 °F 29.8 in SW 6 mph 24 mph 80 % 0 in
21:52 45.7 °F 40.1 °F 29.8 in WSW 7 mph 19 mph 81 % 0 in
21:57 45.5 °F 40.1 °F 29.8 in WSW 11 mph 18 mph 81 % 0 in
22:02 45.5 °F 40.1 °F 29.8 in WSW 18 mph 18 mph 81 % 0 in
22:07 45.5 °F 40.1 °F 29.8 in WSW 10 mph 19 mph 81 % 0 in
22:12 45.5 °F 40.3 °F 29.8 in West 6 mph 19 mph 82 % 0 in
22:17 45.5 °F 40.3 °F 29.8 in SW 14 mph 19 mph 82 % 0 in
22:22 45.5 °F 40.3 °F 29.8 in SW 11 mph 19 mph 82 % 0 in
22:27 45.3 °F 40.1 °F 29.8 in WSW 9 mph 20 mph 82 % 0 in
22:32 45.3 °F 40.1 °F 29.8 in WSW 10 mph 20 mph 82 % 0 in
22:37 45.5 °F 40.3 °F 29.8 in SW 6 mph 16 mph 82 % 0 in
22:42 45.3 °F 40.5 °F 29.8 in WSW 8 mph 20 mph 83 % 0 in
22:47 45.7 °F 40.8 °F 29.8 in West 9 mph 20 mph 83 % 0 in
22:52 45.7 °F 40.5 °F 29.8 in WSW 10 mph 18 mph 82 % 0 in
23:02 45.7 °F 40.8 °F 29.8 in WSW 12 mph 18 mph 83 % 0 in
23:07 45.7 °F 40.8 °F 29.8 in WSW 10 mph 17 mph 83 % 0 in
23:12 45.7 °F 40.8 °F 29.8 in SW 13 mph 20 mph 83 % 0 in
23:17 45.5 °F 40.6 °F 29.8 in WSW 9 mph 20 mph 83 % 0 in
23:22 45.5 °F 40.6 °F 29.8 in West 7 mph 19 mph 83 % 0 in
23:27 45.5 °F 40.6 °F 29.8 in West 12 mph 19 mph 83 % 0 in
23:32 45.7 °F 40.8 °F 29.8 in West 10 mph 22 mph 83 % 0 in
23:37 45.5 °F 40.6 °F 29.8 in WSW 15 mph 22 mph 83 % 0 in
23:42 45.3 °F 40.8 °F 29.8 in WSW 6 mph 22 mph 84 % 0 in
23:47 45.3 °F 40.8 °F 29.8 in WSW 9 mph 21 mph 84 % 0 in
23:57 45.3 °F 41 °F 29.8 in SW 14 mph 20 mph 85 % 0 in
Meteo18
Compliments of Weather Underground - 4 mb

Script developed by  Jim McMurry - jmcmurry@mwt.net Adapted for the template by  Wim van der Kuil - Leuven-Template.eu

You find our weather info also at:

European Weather Network

Weather Underground

Equipment we use:

Weather-station
Davis Vue

Weather-program
Meteohub

Weather-server
Raspberry PI 2 B+

Provider
1 and 1

Davis Vue

Meteohub

Raspberry PI 2 B+

1 and 1